sensor_id;sensor_type;location;lat;lon;timestamp;P1;durP1;ratioP1;P2;durP2;ratioP2
7432;SDS011;32233;49.500;7.764;2023-01-15T00:01:39;0.97;;;0.40;;
7432;SDS011;32233;49.500;7.764;2023-01-15T00:04:05;0.80;;;0.40;;
7432;SDS011;32233;49.500;7.764;2023-01-15T00:06:36;0.30;;;0.30;;
7432;SDS011;32233;49.500;7.764;2023-01-15T00:09:05;0.30;;;0.30;;
7432;SDS011;32233;49.500;7.764;2023-01-15T00:11:33;0.30;;;0.30;;
7432;SDS011;32233;49.500;7.764;2023-01-15T00:14:00;0.40;;;0.40;;
7432;SDS011;32233;49.500;7.764;2023-01-15T00:16:26;0.30;;;0.30;;
7432;SDS011;32233;49.500;7.764;2023-01-15T00:18:54;0.50;;;0.50;;
7432;SDS011;32233;49.500;7.764;2023-01-15T00:21:22;0.30;;;0.30;;
7432;SDS011;32233;49.500;7.764;2023-01-15T00:23:50;0.47;;;0.40;;
7432;SDS011;32233;49.500;7.764;2023-01-15T00:26:37;0.70;;;0.50;;
7432;SDS011;32233;49.500;7.764;2023-01-15T00:29:22;0.60;;;0.50;;
7432;SDS011;32233;49.500;7.764;2023-01-15T00:34:21;0.47;;;0.40;;
7432;SDS011;32233;49.500;7.764;2023-01-15T00:36:48;0.30;;;0.30;;
7432;SDS011;32233;49.500;7.764;2023-01-15T00:39:15;0.50;;;0.50;;
7432;SDS011;32233;49.500;7.764;2023-01-15T00:41:41;0.40;;;0.40;;
7432;SDS011;32233;49.500;7.764;2023-01-15T00:44:08;0.40;;;0.40;;
7432;SDS011;32233;49.500;7.764;2023-01-15T00:46:35;0.50;;;0.40;;
7432;SDS011;32233;49.500;7.764;2023-01-15T00:49:03;0.50;;;0.40;;
7432;SDS011;32233;49.500;7.764;2023-01-15T00:51:30;0.40;;;0.40;;
7432;SDS011;32233;49.500;7.764;2023-01-15T00:53:56;0.33;;;0.33;;
7432;SDS011;32233;49.500;7.764;2023-01-15T00:56:23;0.40;;;0.30;;
7432;SDS011;32233;49.500;7.764;2023-01-15T00:58:50;1.37;;;0.40;;
7432;SDS011;32233;49.500;7.764;2023-01-15T01:01:17;0.47;;;0.40;;
7432;SDS011;32233;49.500;7.764;2023-01-15T01:03:44;0.50;;;0.40;;
7432;SDS011;32233;49.500;7.764;2023-01-15T01:06:18;1.03;;;0.30;;
7432;SDS011;32233;49.500;7.764;2023-01-15T01:08:46;0.40;;;0.33;;
7432;SDS011;32233;49.500;7.764;2023-01-15T01:11:14;0.30;;;0.30;;
7432;SDS011;32233;49.500;7.764;2023-01-15T01:13:42;0.30;;;0.30;;
7432;SDS011;32233;49.500;7.764;2023-01-15T01:18:58;0.60;;;0.40;;
7432;SDS011;32233;49.500;7.764;2023-01-15T01:21:26;0.40;;;0.40;;
7432;SDS011;32233;49.500;7.764;2023-01-15T01:23:53;0.97;;;0.40;;
7432;SDS011;32233;49.500;7.764;2023-01-15T01:26:20;0.70;;;0.50;;
7432;SDS011;32233;49.500;7.764;2023-01-15T01:28:48;2.10;;;0.57;;
7432;SDS011;32233;49.500;7.764;2023-01-15T01:31:15;0.50;;;0.50;;
7432;SDS011;32233;49.500;7.764;2023-01-15T01:33:42;0.53;;;0.47;;
7432;SDS011;32233;49.500;7.764;2023-01-15T01:36:09;0.97;;;0.50;;
7432;SDS011;32233;49.500;7.764;2023-01-15T01:38:35;0.63;;;0.50;;
7432;SDS011;32233;49.500;7.764;2023-01-15T01:41:03;0.67;;;0.50;;
7432;SDS011;32233;49.500;7.764;2023-01-15T01:43:29;0.60;;;0.40;;
7432;SDS011;32233;49.500;7.764;2023-01-15T01:45:57;0.50;;;0.50;;
7432;SDS011;32233;49.500;7.764;2023-01-15T01:48:25;1.17;;;0.60;;
7432;SDS011;32233;49.500;7.764;2023-01-15T01:50:57;0.80;;;0.50;;
7432;SDS011;32233;49.500;7.764;2023-01-15T01:53:27;0.33;;;0.33;;
7432;SDS011;32233;49.500;7.764;2023-01-15T01:55:56;0.90;;;0.30;;
7432;SDS011;32233;49.500;7.764;2023-01-15T01:58:25;0.37;;;0.20;;
7432;SDS011;32233;49.500;7.764;2023-01-15T02:00:55;0.20;;;0.20;;
7432;SDS011;32233;49.500;7.764;2023-01-15T02:03:23;0.30;;;0.30;;
7432;SDS011;32233;49.500;7.764;2023-01-15T02:05:55;0.30;;;0.20;;
7432;SDS011;32233;49.500;7.764;2023-01-15T02:08:26;0.20;;;0.20;;
7432;SDS011;32233;49.500;7.764;2023-01-15T02:10:54;0.10;;;0.10;;
7432;SDS011;32233;49.500;7.764;2023-01-15T02:13:38;0.10;;;0.10;;
7432;SDS011;32233;49.500;7.764;2023-01-15T02:19:57;0.30;;;0.10;;
7432;SDS011;32233;49.500;7.764;2023-01-15T02:27:22;0.10;;;0.10;;
7432;SDS011;32233;49.500;7.764;2023-01-15T02:29:58;0.10;;;0.10;;
7432;SDS011;32233;49.500;7.764;2023-01-15T02:35:15;0.20;;;0.20;;
7432;SDS011;32233;49.500;7.764;2023-01-15T02:37:48;0.10;;;0.10;;
7432;SDS011;32233;49.500;7.764;2023-01-15T02:40:22;0.10;;;0.10;;
7432;SDS011;32233;49.500;7.764;2023-01-15T02:42:51;0.00;;;0.00;;
7432;SDS011;32233;49.500;7.764;2023-01-15T02:45:20;0.00;;;0.00;;
7432;SDS011;32233;49.500;7.764;2023-01-15T02:47:57;0.03;;;0.00;;
7432;SDS011;32233;49.500;7.764;2023-01-15T02:50:33;0.00;;;0.00;;
7432;SDS011;32233;49.500;7.764;2023-01-15T02:53:04;0.67;;;0.63;;
7432;SDS011;32233;49.500;7.764;2023-01-15T02:55:37;1.10;;;0.10;;
7432;SDS011;32233;49.500;7.764;2023-01-15T02:58:10;0.07;;;0.07;;
7432;SDS011;32233;49.500;7.764;2023-01-15T03:00:44;0.10;;;0.10;;
7432;SDS011;32233;49.500;7.764;2023-01-15T03:03:20;0.90;;;0.10;;
7432;SDS011;32233;49.500;7.764;2023-01-15T03:06:00;0.20;;;0.10;;
7432;SDS011;32233;49.500;7.764;2023-01-15T03:08:33;0.30;;;0.10;;
7432;SDS011;32233;49.500;7.764;2023-01-15T03:11:13;0.10;;;0.10;;
7432;SDS011;32233;49.500;7.764;2023-01-15T03:13:52;0.20;;;0.00;;
7432;SDS011;32233;49.500;7.764;2023-01-15T03:16:38;0.00;;;0.00;;
7432;SDS011;32233;49.500;7.764;2023-01-15T03:19:21;0.10;;;0.10;;
7432;SDS011;32233;49.500;7.764;2023-01-15T03:22:02;1.00;;;0.10;;
7432;SDS011;32233;49.500;7.764;2023-01-15T03:24:39;0.10;;;0.10;;
7432;SDS011;32233;49.500;7.764;2023-01-15T03:27:11;0.00;;;0.00;;
7432;SDS011;32233;49.500;7.764;2023-01-15T03:29:48;0.20;;;0.10;;
7432;SDS011;32233;49.500;7.764;2023-01-15T03:32:19;0.00;;;0.00;;
7432;SDS011;32233;49.500;7.764;2023-01-15T03:34:51;0.03;;;0.03;;
7432;SDS011;32233;49.500;7.764;2023-01-15T03:37:21;1.50;;;0.10;;
7432;SDS011;32233;49.500;7.764;2023-01-15T03:39:52;0.00;;;0.00;;
7432;SDS011;32233;49.500;7.764;2023-01-15T03:45:23;0.03;;;0.03;;
7432;SDS011;32233;49.500;7.764;2023-01-15T03:48:00;0.10;;;0.10;;
7432;SDS011;32233;49.500;7.764;2023-01-15T03:53:09;0.00;;;0.00;;
7432;SDS011;32233;49.500;7.764;2023-01-15T03:55:52;0.10;;;0.10;;
7432;SDS011;32233;49.500;7.764;2023-01-15T03:58:24;0.67;;;0.10;;
7432;SDS011;32233;49.500;7.764;2023-01-15T04:00:57;0.47;;;0.00;;
7432;SDS011;32233;49.500;7.764;2023-01-15T04:03:26;0.27;;;0.03;;
7432;SDS011;32233;49.500;7.764;2023-01-15T04:05:56;0.00;;;0.00;;
7432;SDS011;32233;49.500;7.764;2023-01-15T04:08:26;1.00;;;0.10;;
7432;SDS011;32233;49.500;7.764;2023-01-15T04:10:58;0.10;;;0.10;;
7432;SDS011;32233;49.500;7.764;2023-01-15T04:13:29;0.10;;;0.10;;
7432;SDS011;32233;49.500;7.764;2023-01-15T04:15:57;0.40;;;0.10;;
7432;SDS011;32233;49.500;7.764;2023-01-15T04:18:24;0.07;;;0.07;;
7432;SDS011;32233;49.500;7.764;2023-01-15T04:20:51;0.10;;;0.10;;
7432;SDS011;32233;49.500;7.764;2023-01-15T04:23:19;0.97;;;0.10;;
7432;SDS011;32233;49.500;7.764;2023-01-15T04:25:46;0.10;;;0.10;;
7432;SDS011;32233;49.500;7.764;2023-01-15T04:28:12;0.10;;;0.10;;
7432;SDS011;32233;49.500;7.764;2023-01-15T04:30:39;0.10;;;0.10;;
7432;SDS011;32233;49.500;7.764;2023-01-15T04:33:08;0.47;;;0.10;;
7432;SDS011;32233;49.500;7.764;2023-01-15T04:35:36;0.10;;;0.10;;
7432;SDS011;32233;49.500;7.764;2023-01-15T04:38:03;0.30;;;0.10;;
7432;SDS011;32233;49.500;7.764;2023-01-15T04:40:30;0.10;;;0.10;;
7432;SDS011;32233;49.500;7.764;2023-01-15T04:43:15;0.23;;;0.10;;
7432;SDS011;32233;49.500;7.764;2023-01-15T04:46:00;0.10;;;0.10;;
7432;SDS011;32233;49.500;7.764;2023-01-15T04:48:26;0.10;;;0.10;;
7432;SDS011;32233;49.500;7.764;2023-01-15T04:50:53;0.20;;;0.20;;
7432;SDS011;32233;49.500;7.764;2023-01-15T04:53:19;0.10;;;0.10;;
7432;SDS011;32233;49.500;7.764;2023-01-15T04:55:46;0.20;;;0.20;;
7432;SDS011;32233;49.500;7.764;2023-01-15T04:58:12;0.17;;;0.17;;
7432;SDS011;32233;49.500;7.764;2023-01-15T05:00:39;0.20;;;0.20;;
7432;SDS011;32233;49.500;7.764;2023-01-15T05:03:05;0.50;;;0.30;;
7432;SDS011;32233;49.500;7.764;2023-01-15T05:05:32;1.03;;;0.20;;
7432;SDS011;32233;49.500;7.764;2023-01-15T05:07:58;0.30;;;0.30;;
7432;SDS011;32233;49.500;7.764;2023-01-15T05:10:25;0.57;;;0.30;;
7432;SDS011;32233;49.500;7.764;2023-01-15T05:12:51;0.20;;;0.20;;
7432;SDS011;32233;49.500;7.764;2023-01-15T05:15:18;0.40;;;0.30;;
7432;SDS011;32233;49.500;7.764;2023-01-15T05:17:44;0.20;;;0.20;;
7432;SDS011;32233;49.500;7.764;2023-01-15T05:20:11;0.83;;;0.20;;
7432;SDS011;32233;49.500;7.764;2023-01-15T05:22:38;0.20;;;0.20;;
7432;SDS011;32233;49.500;7.764;2023-01-15T05:25:04;0.20;;;0.20;;
7432;SDS011;32233;49.500;7.764;2023-01-15T05:27:31;0.77;;;0.20;;
7432;SDS011;32233;49.500;7.764;2023-01-15T05:29:57;0.20;;;0.20;;
7432;SDS011;32233;49.500;7.764;2023-01-15T05:32:24;0.87;;;0.20;;
7432;SDS011;32233;49.500;7.764;2023-01-15T05:34:50;0.30;;;0.20;;
7432;SDS011;32233;49.500;7.764;2023-01-15T05:37:17;0.30;;;0.30;;
7432;SDS011;32233;49.500;7.764;2023-01-15T05:39:43;0.20;;;0.20;;
7432;SDS011;32233;49.500;7.764;2023-01-15T05:42:10;0.20;;;0.20;;
7432;SDS011;32233;49.500;7.764;2023-01-15T05:44:36;0.20;;;0.20;;
7432;SDS011;32233;49.500;7.764;2023-01-15T05:47:03;0.37;;;0.20;;
7432;SDS011;32233;49.500;7.764;2023-01-15T05:49:32;0.20;;;0.20;;
7432;SDS011;32233;49.500;7.764;2023-01-15T05:52:00;0.20;;;0.20;;
7432;SDS011;32233;49.500;7.764;2023-01-15T05:54:28;0.43;;;0.30;;
7432;SDS011;32233;49.500;7.764;2023-01-15T05:56:57;1.03;;;0.30;;
7432;SDS011;32233;49.500;7.764;2023-01-15T05:59:25;0.43;;;0.40;;
7432;SDS011;32233;49.500;7.764;2023-01-15T06:01:53;0.27;;;0.27;;
7432;SDS011;32233;49.500;7.764;2023-01-15T06:04:20;0.30;;;0.30;;
7432;SDS011;32233;49.500;7.764;2023-01-15T06:06:48;0.40;;;0.30;;
7432;SDS011;32233;49.500;7.764;2023-01-15T06:09:16;0.40;;;0.40;;
7432;SDS011;32233;49.500;7.764;2023-01-15T06:11:42;0.90;;;0.40;;
7432;SDS011;32233;49.500;7.764;2023-01-15T06:14:10;0.43;;;0.43;;
7432;SDS011;32233;49.500;7.764;2023-01-15T06:16:38;1.10;;;0.50;;
7432;SDS011;32233;49.500;7.764;2023-01-15T06:19:07;0.50;;;0.50;;
7432;SDS011;32233;49.500;7.764;2023-01-15T06:21:35;0.90;;;0.40;;
7432;SDS011;32233;49.500;7.764;2023-01-15T06:24:02;0.40;;;0.40;;
7432;SDS011;32233;49.500;7.764;2023-01-15T06:26:29;0.50;;;0.50;;
7432;SDS011;32233;49.500;7.764;2023-01-15T06:28:55;0.50;;;0.30;;
7432;SDS011;32233;49.500;7.764;2023-01-15T06:31:23;0.40;;;0.40;;
7432;SDS011;32233;49.500;7.764;2023-01-15T06:33:51;0.50;;;0.43;;
7432;SDS011;32233;49.500;7.764;2023-01-15T06:36:19;0.20;;;0.20;;
7432;SDS011;32233;49.500;7.764;2023-01-15T06:38:47;0.63;;;0.30;;
7432;SDS011;32233;49.500;7.764;2023-01-15T06:41:15;0.40;;;0.40;;
7432;SDS011;32233;49.500;7.764;2023-01-15T06:44:01;0.30;;;0.30;;
7432;SDS011;32233;49.500;7.764;2023-01-15T06:46:47;0.20;;;0.20;;
7432;SDS011;32233;49.500;7.764;2023-01-15T06:49:34;0.43;;;0.30;;
7432;SDS011;32233;49.500;7.764;2023-01-15T06:52:02;0.37;;;0.37;;
7432;SDS011;32233;49.500;7.764;2023-01-15T06:54:29;0.43;;;0.43;;
7432;SDS011;32233;49.500;7.764;2023-01-15T06:56:56;1.53;;;0.43;;
7432;SDS011;32233;49.500;7.764;2023-01-15T06:59:23;2.20;;;2.00;;
7432;SDS011;32233;49.500;7.764;2023-01-15T07:01:49;0.40;;;0.30;;
7432;SDS011;32233;49.500;7.764;2023-01-15T07:04:16;0.67;;;0.67;;
7432;SDS011;32233;49.500;7.764;2023-01-15T07:06:42;0.40;;;0.40;;
7432;SDS011;32233;49.500;7.764;2023-01-15T07:09:09;0.30;;;0.30;;
7432;SDS011;32233;49.500;7.764;2023-01-15T07:11:36;0.60;;;0.60;;
7432;SDS011;32233;49.500;7.764;2023-01-15T07:14:24;0.30;;;0.30;;
7432;SDS011;32233;49.500;7.764;2023-01-15T07:16:53;0.20;;;0.20;;
7432;SDS011;32233;49.500;7.764;2023-01-15T07:19:20;0.37;;;0.20;;
7432;SDS011;32233;49.500;7.764;2023-01-15T07:21:47;1.37;;;0.23;;
7432;SDS011;32233;49.500;7.764;2023-01-15T07:24:14;0.53;;;0.53;;
7432;SDS011;32233;49.500;7.764;2023-01-15T07:26:41;0.20;;;0.20;;
7432;SDS011;32233;49.500;7.764;2023-01-15T07:29:08;1.27;;;1.20;;
7432;SDS011;32233;49.500;7.764;2023-01-15T07:31:35;0.77;;;0.43;;
7432;SDS011;32233;49.500;7.764;2023-01-15T07:34:02;0.40;;;0.27;;
7432;SDS011;32233;49.500;7.764;2023-01-15T07:36:29;0.30;;;0.30;;
7432;SDS011;32233;49.500;7.764;2023-01-15T07:38:55;0.50;;;0.50;;
7432;SDS011;32233;49.500;7.764;2023-01-15T07:41:21;0.33;;;0.27;;
7432;SDS011;32233;49.500;7.764;2023-01-15T07:44:09;0.30;;;0.30;;
7432;SDS011;32233;49.500;7.764;2023-01-15T07:46:55;0.20;;;0.20;;
7432;SDS011;32233;49.500;7.764;2023-01-15T07:49:41;0.30;;;0.30;;
7432;SDS011;32233;49.500;7.764;2023-01-15T07:52:11;0.10;;;0.10;;
7432;SDS011;32233;49.500;7.764;2023-01-15T07:54:38;0.30;;;0.30;;
7432;SDS011;32233;49.500;7.764;2023-01-15T07:57:05;0.67;;;0.30;;
7432;SDS011;32233;49.500;7.764;2023-01-15T07:59:32;0.20;;;0.20;;
7432;SDS011;32233;49.500;7.764;2023-01-15T08:01:59;0.43;;;0.10;;
7432;SDS011;32233;49.500;7.764;2023-01-15T08:04:25;0.57;;;0.30;;
7432;SDS011;32233;49.500;7.764;2023-01-15T08:06:52;0.50;;;0.50;;
7432;SDS011;32233;49.500;7.764;2023-01-15T08:09:18;1.13;;;0.80;;
7432;SDS011;32233;49.500;7.764;2023-01-15T08:11:45;1.53;;;0.90;;
7432;SDS011;32233;49.500;7.764;2023-01-15T08:14:30;0.40;;;0.37;;
7432;SDS011;32233;49.500;7.764;2023-01-15T08:17:15;2.30;;;0.40;;
7432;SDS011;32233;49.500;7.764;2023-01-15T08:19:41;0.60;;;0.30;;
7432;SDS011;32233;49.500;7.764;2023-01-15T08:22:09;1.27;;;0.50;;
7432;SDS011;32233;49.500;7.764;2023-01-15T08:24:35;1.27;;;0.50;;
7432;SDS011;32233;49.500;7.764;2023-01-15T08:27:02;2.80;;;0.50;;
7432;SDS011;32233;49.500;7.764;2023-01-15T08:29:29;1.00;;;0.50;;
7432;SDS011;32233;49.500;7.764;2023-01-15T08:31:55;0.67;;;0.50;;
7432;SDS011;32233;49.500;7.764;2023-01-15T08:34:22;2.20;;;0.50;;
7432;SDS011;32233;49.500;7.764;2023-01-15T08:36:49;1.73;;;0.40;;
7432;SDS011;32233;49.500;7.764;2023-01-15T08:39:22;0.70;;;0.50;;
7432;SDS011;32233;49.500;7.764;2023-01-15T08:41:48;0.40;;;0.40;;
7432;SDS011;32233;49.500;7.764;2023-01-15T08:44:15;3.30;;;0.50;;
7432;SDS011;32233;49.500;7.764;2023-01-15T08:46:42;1.07;;;0.50;;
7432;SDS011;32233;49.500;7.764;2023-01-15T08:49:09;1.63;;;0.70;;
7432;SDS011;32233;49.500;7.764;2023-01-15T08:51:39;2.93;;;0.60;;
7432;SDS011;32233;49.500;7.764;2023-01-15T08:54:05;0.60;;;0.40;;
7432;SDS011;32233;49.500;7.764;2023-01-15T08:56:32;1.60;;;0.53;;
7432;SDS011;32233;49.500;7.764;2023-01-15T08:59:09;3.00;;;0.70;;
7432;SDS011;32233;49.500;7.764;2023-01-15T09:01:44;1.23;;;0.50;;
7432;SDS011;32233;49.500;7.764;2023-01-15T09:04:38;2.77;;;0.70;;
7432;SDS011;32233;49.500;7.764;2023-01-15T09:07:11;2.93;;;0.53;;
7432;SDS011;32233;49.500;7.764;2023-01-15T09:09:40;1.70;;;0.60;;
7432;SDS011;32233;49.500;7.764;2023-01-15T09:12:45;1.23;;;0.60;;
7432;SDS011;32233;49.500;7.764;2023-01-15T09:15:31;1.70;;;0.50;;
7432;SDS011;32233;49.500;7.764;2023-01-15T09:18:08;2.07;;;0.53;;
7432;SDS011;32233;49.500;7.764;2023-01-15T09:20:59;2.80;;;0.60;;
7432;SDS011;32233;49.500;7.764;2023-01-15T09:23:29;2.80;;;0.60;;
7432;SDS011;32233;49.500;7.764;2023-01-15T09:26:31;1.17;;;0.60;;
7432;SDS011;32233;49.500;7.764;2023-01-15T09:29:13;0.97;;;0.50;;
7432;SDS011;32233;49.500;7.764;2023-01-15T09:32:04;1.57;;;0.70;;
7432;SDS011;32233;49.500;7.764;2023-01-15T09:35:08;2.20;;;1.13;;
7432;SDS011;32233;49.500;7.764;2023-01-15T09:37:58;2.73;;;0.70;;
7432;SDS011;32233;49.500;7.764;2023-01-15T09:47:53;1.70;;;0.60;;
7432;SDS011;32233;49.500;7.764;2023-01-15T09:57:16;1.67;;;0.80;;
7432;SDS011;32233;49.500;7.764;2023-01-15T10:00:00;1.40;;;0.50;;
7432;SDS011;32233;49.500;7.764;2023-01-15T10:06:50;1.67;;;0.40;;
7432;SDS011;32233;49.500;7.764;2023-01-15T10:09:34;0.93;;;0.20;;
7432;SDS011;32233;49.500;7.764;2023-01-15T10:12:37;0.20;;;0.10;;
7432;SDS011;32233;49.500;7.764;2023-01-15T10:25:26;0.00;;;0.00;;
7432;SDS011;32233;49.500;7.764;2023-01-15T10:28:10;1.60;;;0.17;;
7432;SDS011;32233;49.500;7.764;2023-01-15T10:30:46;0.10;;;0.10;;
7432;SDS011;32233;49.500;7.764;2023-01-15T10:36:58;0.13;;;0.10;;
7432;SDS011;32233;49.500;7.764;2023-01-15T10:40:37;0.83;;;0.10;;
7432;SDS011;32233;49.500;7.764;2023-01-15T10:46:48;0.10;;;0.10;;
7432;SDS011;32233;49.500;7.764;2023-01-15T10:49:55;0.30;;;0.10;;
7432;SDS011;32233;49.500;7.764;2023-01-15T10:52:36;0.03;;;0.03;;
7432;SDS011;32233;49.500;7.764;2023-01-15T10:55:51;0.10;;;0.10;;
7432;SDS011;32233;49.500;7.764;2023-01-15T11:02:46;0.70;;;0.13;;
7432;SDS011;32233;49.500;7.764;2023-01-15T11:05:46;0.20;;;0.20;;
7432;SDS011;32233;49.500;7.764;2023-01-15T11:08:22;0.30;;;0.10;;
7432;SDS011;32233;49.500;7.764;2023-01-15T11:11:37;0.23;;;0.10;;
7432;SDS011;32233;49.500;7.764;2023-01-15T11:14:44;1.87;;;0.77;;
7432;SDS011;32233;49.500;7.764;2023-01-15T11:18:03;0.53;;;0.30;;
7432;SDS011;32233;49.500;7.764;2023-01-15T11:21:08;0.70;;;0.40;;
7432;SDS011;32233;49.500;7.764;2023-01-15T11:23:38;1.20;;;1.10;;
7432;SDS011;32233;49.500;7.764;2023-01-15T11:26:30;1.87;;;0.70;;
7432;SDS011;32233;49.500;7.764;2023-01-15T11:29:13;2.97;;;2.03;;
7432;SDS011;32233;49.500;7.764;2023-01-15T11:35:03;5.07;;;2.83;;
7432;SDS011;32233;49.500;7.764;2023-01-15T11:38:45;1.10;;;1.00;;
7432;SDS011;32233;49.500;7.764;2023-01-15T11:41:35;3.13;;;1.97;;
7432;SDS011;32233;49.500;7.764;2023-01-15T11:45:16;0.90;;;0.80;;
7432;SDS011;32233;49.500;7.764;2023-01-15T11:51:41;1.90;;;1.30;;
7432;SDS011;32233;49.500;7.764;2023-01-15T11:54:41;1.80;;;1.30;;
7432;SDS011;32233;49.500;7.764;2023-01-15T11:57:45;2.63;;;1.73;;
7432;SDS011;32233;49.500;7.764;2023-01-15T12:00:58;10.90;;;6.27;;
7432;SDS011;32233;49.500;7.764;2023-01-15T12:03:45;2.37;;;1.30;;
7432;SDS011;32233;49.500;7.764;2023-01-15T12:06:27;0.70;;;0.70;;
7432;SDS011;32233;49.500;7.764;2023-01-15T12:12:45;1.90;;;1.70;;
7432;SDS011;32233;49.500;7.764;2023-01-15T12:33:22;2.13;;;1.80;;
7432;SDS011;32233;49.500;7.764;2023-01-15T12:36:29;9.77;;;3.90;;
7432;SDS011;32233;49.500;7.764;2023-01-15T12:39:14;3.07;;;1.10;;
7432;SDS011;32233;49.500;7.764;2023-01-15T12:42:28;6.23;;;1.60;;
7432;SDS011;32233;49.500;7.764;2023-01-15T12:45:23;3.60;;;1.20;;
7432;SDS011;32233;49.500;7.764;2023-01-15T12:51:00;3.43;;;1.30;;
7432;SDS011;32233;49.500;7.764;2023-01-15T12:54:00;5.77;;;1.97;;
7432;SDS011;32233;49.500;7.764;2023-01-15T12:57:37;4.50;;;1.03;;
7432;SDS011;32233;49.500;7.764;2023-01-15T13:00:27;3.43;;;0.80;;
7432;SDS011;32233;49.500;7.764;2023-01-15T13:03:22;3.50;;;1.50;;
7432;SDS011;32233;49.500;7.764;2023-01-15T13:06:06;4.23;;;1.23;;
7432;SDS011;32233;49.500;7.764;2023-01-15T13:09:38;4.00;;;0.70;;
7432;SDS011;32233;49.500;7.764;2023-01-15T13:12:36;1.43;;;1.00;;
7432;SDS011;32233;49.500;7.764;2023-01-15T13:15:15;3.27;;;1.00;;
7432;SDS011;32233;49.500;7.764;2023-01-15T13:21:16;3.53;;;0.90;;
7432;SDS011;32233;49.500;7.764;2023-01-15T13:36:14;3.40;;;0.80;;
7432;SDS011;32233;49.500;7.764;2023-01-15T13:39:10;5.37;;;1.33;;
7432;SDS011;32233;49.500;7.764;2023-01-15T13:41:58;2.47;;;0.93;;
7432;SDS011;32233;49.500;7.764;2023-01-15T13:44:51;6.70;;;1.00;;
7432;SDS011;32233;49.500;7.764;2023-01-15T13:47:34;3.97;;;0.90;;
7432;SDS011;32233;49.500;7.764;2023-01-15T13:50:34;3.33;;;1.10;;
7432;SDS011;32233;49.500;7.764;2023-01-15T13:53:35;6.00;;;1.00;;
7432;SDS011;32233;49.500;7.764;2023-01-15T13:59:44;4.60;;;0.70;;
7432;SDS011;32233;49.500;7.764;2023-01-15T14:02:39;4.10;;;0.70;;
7432;SDS011;32233;49.500;7.764;2023-01-15T14:08:47;2.30;;;0.60;;
7432;SDS011;32233;49.500;7.764;2023-01-15T14:11:38;5.00;;;0.63;;
7432;SDS011;32233;49.500;7.764;2023-01-15T14:34:54;3.57;;;0.70;;
7432;SDS011;32233;49.500;7.764;2023-01-15T14:38:05;2.63;;;0.87;;
7432;SDS011;32233;49.500;7.764;2023-01-15T14:41:04;5.67;;;1.00;;
7432;SDS011;32233;49.500;7.764;2023-01-15T14:44:29;5.73;;;1.30;;
7432;SDS011;32233;49.500;7.764;2023-01-15T14:47:33;4.33;;;1.20;;
7432;SDS011;32233;49.500;7.764;2023-01-15T14:50:43;4.63;;;0.90;;
7432;SDS011;32233;49.500;7.764;2023-01-15T14:56:30;2.33;;;0.73;;
7432;SDS011;32233;49.500;7.764;2023-01-15T15:02:00;2.07;;;1.03;;
7432;SDS011;32233;49.500;7.764;2023-01-15T15:04:53;4.77;;;1.00;;
7432;SDS011;32233;49.500;7.764;2023-01-15T15:07:27;9.07;;;2.03;;
7432;SDS011;32233;49.500;7.764;2023-01-15T15:10:36;4.57;;;0.80;;
7432;SDS011;32233;49.500;7.764;2023-01-15T15:16:18;3.33;;;0.90;;
7432;SDS011;32233;49.500;7.764;2023-01-15T15:22:05;3.97;;;0.90;;
7432;SDS011;32233;49.500;7.764;2023-01-15T15:24:53;3.40;;;1.00;;
7432;SDS011;32233;49.500;7.764;2023-01-15T15:28:15;3.13;;;0.77;;
7432;SDS011;32233;49.500;7.764;2023-01-15T15:30:42;5.50;;;1.33;;
7432;SDS011;32233;49.500;7.764;2023-01-15T15:33:13;4.23;;;1.00;;
7432;SDS011;32233;49.500;7.764;2023-01-15T15:35:44;4.33;;;1.27;;
7432;SDS011;32233;49.500;7.764;2023-01-15T15:38:15;3.23;;;1.00;;
7432;SDS011;32233;49.500;7.764;2023-01-15T15:40:45;4.00;;;0.90;;
7432;SDS011;32233;49.500;7.764;2023-01-15T15:46:36;7.87;;;1.40;;
7432;SDS011;32233;49.500;7.764;2023-01-15T15:49:21;5.87;;;1.20;;
7432;SDS011;32233;49.500;7.764;2023-01-15T15:51:48;6.83;;;1.60;;
7432;SDS011;32233;49.500;7.764;2023-01-15T15:54:21;6.83;;;1.90;;
7432;SDS011;32233;49.500;7.764;2023-01-15T15:57:02;8.63;;;2.30;;
7432;SDS011;32233;49.500;7.764;2023-01-15T16:02:21;2.20;;;1.03;;
7432;SDS011;32233;49.500;7.764;2023-01-15T16:07:44;3.73;;;1.00;;
7432;SDS011;32233;49.500;7.764;2023-01-15T16:10:15;2.00;;;0.97;;
7432;SDS011;32233;49.500;7.764;2023-01-15T16:12:54;7.80;;;1.30;;
7432;SDS011;32233;49.500;7.764;2023-01-15T16:15:38;5.77;;;0.80;;
7432;SDS011;32233;49.500;7.764;2023-01-15T16:18:10;4.93;;;1.00;;
7432;SDS011;32233;49.500;7.764;2023-01-15T16:20:45;10.67;;;4.27;;
7432;SDS011;32233;49.500;7.764;2023-01-15T16:23:19;7.00;;;3.13;;
7432;SDS011;32233;49.500;7.764;2023-01-15T16:25:54;7.47;;;3.77;;
7432;SDS011;32233;49.500;7.764;2023-01-15T16:28:25;10.33;;;4.60;;
7432;SDS011;32233;49.500;7.764;2023-01-15T16:30:57;4.77;;;2.30;;
7432;SDS011;32233;49.500;7.764;2023-01-15T16:33:25;8.67;;;4.13;;
7432;SDS011;32233;49.500;7.764;2023-01-15T16:35:55;3.80;;;2.03;;
7432;SDS011;32233;49.500;7.764;2023-01-15T16:38:30;4.50;;;1.97;;
7432;SDS011;32233;49.500;7.764;2023-01-15T16:40:58;6.03;;;2.00;;
7432;SDS011;32233;49.500;7.764;2023-01-15T16:43:27;5.30;;;1.33;;
7432;SDS011;32233;49.500;7.764;2023-01-15T16:46:02;7.10;;;2.07;;
7432;SDS011;32233;49.500;7.764;2023-01-15T16:48:32;3.70;;;1.30;;
7432;SDS011;32233;49.500;7.764;2023-01-15T16:53:50;5.53;;;0.97;;
7432;SDS011;32233;49.500;7.764;2023-01-15T16:59:15;5.97;;;1.07;;
7432;SDS011;32233;49.500;7.764;2023-01-15T17:01:44;6.63;;;1.73;;
7432;SDS011;32233;49.500;7.764;2023-01-15T17:06:55;4.70;;;1.50;;
7432;SDS011;32233;49.500;7.764;2023-01-15T17:09:24;4.83;;;1.60;;
7432;SDS011;32233;49.500;7.764;2023-01-15T17:11:52;5.20;;;1.30;;
7432;SDS011;32233;49.500;7.764;2023-01-15T17:14:20;5.70;;;1.47;;
7432;SDS011;32233;49.500;7.764;2023-01-15T17:19:42;5.40;;;1.07;;
7432;SDS011;32233;49.500;7.764;2023-01-15T17:22:10;4.57;;;0.67;;
7432;SDS011;32233;49.500;7.764;2023-01-15T17:24:51;4.50;;;0.70;;
7432;SDS011;32233;49.500;7.764;2023-01-15T17:27:19;3.77;;;0.90;;
7432;SDS011;32233;49.500;7.764;2023-01-15T17:29:46;3.40;;;1.17;;
7432;SDS011;32233;49.500;7.764;2023-01-15T17:32:16;4.40;;;1.10;;
7432;SDS011;32233;49.500;7.764;2023-01-15T17:34:53;5.43;;;2.40;;
7432;SDS011;32233;49.500;7.764;2023-01-15T17:37:20;8.30;;;3.87;;
7432;SDS011;32233;49.500;7.764;2023-01-15T17:39:46;4.27;;;1.80;;
7432;SDS011;32233;49.500;7.764;2023-01-15T17:42:14;3.57;;;2.00;;
7432;SDS011;32233;49.500;7.764;2023-01-15T17:44:42;4.17;;;1.13;;
7432;SDS011;32233;49.500;7.764;2023-01-15T17:47:09;7.67;;;1.63;;
7432;SDS011;32233;49.500;7.764;2023-01-15T17:49:35;7.90;;;1.43;;
7432;SDS011;32233;49.500;7.764;2023-01-15T17:52:03;4.00;;;1.10;;
7432;SDS011;32233;49.500;7.764;2023-01-15T17:54:31;4.97;;;1.07;;
7432;SDS011;32233;49.500;7.764;2023-01-15T17:57:16;1.90;;;0.80;;
7432;SDS011;32233;49.500;7.764;2023-01-15T18:00:02;5.87;;;0.80;;
7432;SDS011;32233;49.500;7.764;2023-01-15T18:02:47;7.57;;;0.80;;
7432;SDS011;32233;49.500;7.764;2023-01-15T18:05:32;3.63;;;0.87;;
7432;SDS011;32233;49.500;7.764;2023-01-15T18:08:01;2.57;;;0.60;;
7432;SDS011;32233;49.500;7.764;2023-01-15T18:10:31;3.17;;;1.00;;
7432;SDS011;32233;49.500;7.764;2023-01-15T18:12:58;3.37;;;1.17;;
7432;SDS011;32233;49.500;7.764;2023-01-15T18:15:27;5.33;;;0.80;;
7432;SDS011;32233;49.500;7.764;2023-01-15T18:17:54;3.73;;;1.50;;
7432;SDS011;32233;49.500;7.764;2023-01-15T18:20:20;2.20;;;0.80;;
7432;SDS011;32233;49.500;7.764;2023-01-15T18:22:47;3.93;;;1.10;;
7432;SDS011;32233;49.500;7.764;2023-01-15T18:25:13;2.10;;;1.03;;
7432;SDS011;32233;49.500;7.764;2023-01-15T18:27:39;5.17;;;1.90;;
7432;SDS011;32233;49.500;7.764;2023-01-15T18:30:13;13.27;;;7.67;;
7432;SDS011;32233;49.500;7.764;2023-01-15T18:32:41;7.27;;;3.33;;
7432;SDS011;32233;49.500;7.764;2023-01-15T18:35:09;2.60;;;1.33;;
7432;SDS011;32233;49.500;7.764;2023-01-15T18:37:37;5.83;;;1.90;;
7432;SDS011;32233;49.500;7.764;2023-01-15T18:40:03;4.70;;;1.60;;
7432;SDS011;32233;49.500;7.764;2023-01-15T18:42:30;4.13;;;1.00;;